Yamashiro Maru — JD3274 — position and weather

sailwx.info

Track history (hours):
 
Tides and Currents Weather Stations Pressure Air Temp Water Temp Dewpoint Dewpoint Depression Visibility Wind Speed Wind Dir Waves Ship Positions

Yamashiro Maru

Last reported at 2018-Jun-21 08:05 UTC. Time now 2018-Jun-23 02:51 UTC.
Position N 34°31' E 134°39'.

Length 57 m; draft 8.3 m.

Type: Cargo ship. MMSI: 431003028.

Date/timePositionNaut miles runAvg speedWind from/ knotsBaromVisibWave heightAir tempDewpointWater temp
2018-Jun-21 08:05N 34°31' E 134°39'111.3
2018-Jun-21 08:00N 34°32' E 134°40'2212.0
2018-Jun-21 06:09N 34°37' E 135°07'211.8
2018-Jun-21 05:59N 34°37' E 135°09'611.7
2018-Jun-21 05:29N 34°38' E 135°16'611.2
2018-Jun-21 04:59N 34°38' E 135°23'  
2018-Jun-18 22:31N 34°39' E 135°27'1 9.7
2018-Jun-18 22:27N 34°39' E 135°26'4 9.1
2018-Jun-18 22:00N 34°37' E 135°22'510.0
2018-Jun-18 21:30N 34°36' E 135°16'611.2
2018-Jun-18 21:00N 34°35' E 135°09'2111.0
2018-Jun-18 19:08N 34°31' E 134°45'310.6
2018-Jun-18 18:53N 34°30' E 134°42'510.8
2018-Jun-18 18:27N 34°29' E 134°36'  
2018-Jun-15 10:05N 34°31' E 134°40'111.7
2018-Jun-15 09:59N 34°31' E 134°41'2210.2
2018-Jun-15 07:49N 34°37' E 135°07'310.2
2018-Jun-15 07:30N 34°37' E 135°11'510.5
2018-Jun-15 06:59N 34°38' E 135°18'5 9.7
2018-Jun-15 06:25N 34°38' E 135°24'1 0.7
2018-Jun-15 05:43N 34°38' E 135°25'0 0.0
2018-Jun-15 05:25N 34°38' E 135°25'0 0.0
2018-Jun-15 04:55N 34°38' E 135°25'0 0.0
2018-Jun-15 04:19N 34°38' E 135°25'0 0.0
2018-Jun-15 03:55N 34°38' E 135°25'0 0.0
2018-Jun-15 03:25N 34°38' E 135°25'0 0.0
2018-Jun-15 03:00N 34°38' E 135°25'4 8.6
2018-Jun-15 02:29N 34°38' E 135°19'510.6
2018-Jun-15 01:58N 34°37' E 135°13'3 5.1
2018-Jun-15 01:27N 34°39' E 135°11'0 0.0
2018-Jun-15 00:55N 34°39' E 135°11'0 0.0
2018-Jun-15 00:25N 34°39' E 135°11'1 1.4
2018-Jun-15 00:00N 34°39' E 135°12'0 0.0
2018-Jun-14 23:27N 34°39' E 135°12'0 0.0
2018-Jun-14 22:51N 34°39' E 135°12'0 0.1
2018-Jun-14 22:27N 34°39' E 135°12'0 0.0
2018-Jun-14 21:57N 34°39' E 135°12'0 0.0
2018-Jun-14 21:27N 34°39' E 135°12'0 0.0
2018-Jun-14 20:57N 34°39' E 135°12'0 0.0
2018-Jun-14 20:27N 34°39' E 135°12'0 0.1
2018-Jun-14 19:57N 34°39' E 135°12'0 0.0
2018-Jun-14 19:27N 34°39' E 135°12'0 0.0
2018-Jun-14 18:57N 34°39' E 135°12'0 0.0
2018-Jun-14 18:27N 34°39' E 135°12'0 0.0
2018-Jun-14 17:57N 34°39' E 135°12'0 0.0
2018-Jun-14 17:27N 34°39' E 135°12'0 0.0
2018-Jun-14 16:57N 34°39' E 135°12'0 1.0
2018-Jun-14 16:30N 34°39' E 135°11'510.9
2018-Jun-14 16:00N 34°35' E 135°06'  
2018-Jun-12 11:20N 34°31' E 134°40'2013.2
2018-Jun-12 09:48N 34°36' E 135°04'411.4
2018-Jun-12 09:25N 34°37' E 135°09'511.1
2018-Jun-12 09:00N 34°37' E 135°15'510.9
2018-Jun-12 08:30N 34°39' E 135°21'5 0.5
2018-Jun-11 22:45N 34°39' E 135°27'2 8.2
2018-Jun-11 22:28N 34°39' E 135°24'5 8.8
2018-Jun-11 21:55N 34°38' E 135°18'510.5
2018-Jun-11 21:29N 34°37' E 135°13'510.3
2018-Jun-11 20:59N 34°37' E 135°07'15 8.6
2018-Jun-11 19:17N 34°33' E 134°49'410.3
2018-Jun-11 18:52N 34°32' E 134°45'510.7
2018-Jun-11 18:26N 34°30' E 134°39'510.6
2018-Jun-11 18:00N 34°28' E 134°34'  
Track history (hours):
 
Tides and Currents Weather Stations Pressure Air Temp Water Temp Dewpoint Dewpoint Depression Visibility Wind Speed Wind Dir Waves Ship Positions

Yamashiro Maru

Last reported at 2018-Jun-21 08:05 UTC. Time now 2018-Jun-23 02:51 UTC.
Position N 34°31' E 134°39'.

Length 57 m; draft 8.3 m.

Type: Cargo ship. MMSI: 431003028.

Date/timePositionNaut miles runAvg speedWind from/ knotsBaromVisibWave heightAir tempDewpointWater temp
2018-Jun-21 08:05N 34°31' E 134°39'111.3
2018-Jun-21 08:00N 34°32' E 134°40'2212.0
2018-Jun-21 06:09N 34°37' E 135°07'211.8
2018-Jun-21 05:59N 34°37' E 135°09'611.7
2018-Jun-21 05:29N 34°38' E 135°16'611.2
2018-Jun-21 04:59N 34°38' E 135°23'  
2018-Jun-18 22:31N 34°39' E 135°27'1 9.7
2018-Jun-18 22:27N 34°39' E 135°26'4 9.1
2018-Jun-18 22:00N 34°37' E 135°22'510.0
2018-Jun-18 21:30N 34°36' E 135°16'611.2
2018-Jun-18 21:00N 34°35' E 135°09'2111.0
2018-Jun-18 19:08N 34°31' E 134°45'310.6
2018-Jun-18 18:53N 34°30' E 134°42'510.8
2018-Jun-18 18:27N 34°29' E 134°36'  
2018-Jun-15 10:05N 34°31' E 134°40'111.7
2018-Jun-15 09:59N 34°31' E 134°41'2210.2
2018-Jun-15 07:49N 34°37' E 135°07'310.2
2018-Jun-15 07:30N 34°37' E 135°11'510.5
2018-Jun-15 06:59N 34°38' E 135°18'5 9.7
2018-Jun-15 06:25N 34°38' E 135°24'1 0.7
2018-Jun-15 05:43N 34°38' E 135°25'0 0.0
2018-Jun-15 05:25N 34°38' E 135°25'0 0.0
2018-Jun-15 04:55N 34°38' E 135°25'0 0.0
2018-Jun-15 04:19N 34°38' E 135°25'0 0.0
2018-Jun-15 03:55N 34°38' E 135°25'0 0.0
2018-Jun-15 03:25N 34°38' E 135°25'0 0.0
2018-Jun-15 03:00N 34°38' E 135°25'4 8.6
2018-Jun-15 02:29N 34°38' E 135°19'510.6
2018-Jun-15 01:58N 34°37' E 135°13'3 5.1
2018-Jun-15 01:27N 34°39' E 135°11'0 0.0
2018-Jun-15 00:55N 34°39' E 135°11'0 0.0
2018-Jun-15 00:25N 34°39' E 135°11'1 1.4
2018-Jun-15 00:00N 34°39' E 135°12'0 0.0
2018-Jun-14 23:27N 34°39' E 135°12'0 0.0
2018-Jun-14 22:51N 34°39' E 135°12'0 0.1
2018-Jun-14 22:27N 34°39' E 135°12'0 0.0
2018-Jun-14 21:57N 34°39' E 135°12'0 0.0
2018-Jun-14 21:27N 34°39' E 135°12'0 0.0
2018-Jun-14 20:57N 34°39' E 135°12'0 0.0
2018-Jun-14 20:27N 34°39' E 135°12'0 0.1
2018-Jun-14 19:57N 34°39' E 135°12'0 0.0
2018-Jun-14 19:27N 34°39' E 135°12'0 0.0
2018-Jun-14 18:57N 34°39' E 135°12'0 0.0
2018-Jun-14 18:27N 34°39' E 135°12'0 0.0
2018-Jun-14 17:57N 34°39' E 135°12'0 0.0
2018-Jun-14 17:27N 34°39' E 135°12'0 0.0
2018-Jun-14 16:57N 34°39' E 135°12'0 1.0
2018-Jun-14 16:30N 34°39' E 135°11'510.9
2018-Jun-14 16:00N 34°35' E 135°06'  
2018-Jun-12 11:20N 34°31' E 134°40'2013.2
2018-Jun-12 09:48N 34°36' E 135°04'411.4
2018-Jun-12 09:25N 34°37' E 135°09'511.1
2018-Jun-12 09:00N 34°37' E 135°15'510.9
2018-Jun-12 08:30N 34°39' E 135°21'5 0.5
2018-Jun-11 22:45N 34°39' E 135°27'2 8.2
2018-Jun-11 22:28N 34°39' E 135°24'5 8.8
2018-Jun-11 21:55N 34°38' E 135°18'510.5
2018-Jun-11 21:29N 34°37' E 135°13'510.3
2018-Jun-11 20:59N 34°37' E 135°07'15 8.6
2018-Jun-11 19:17N 34°33' E 134°49'410.3
2018-Jun-11 18:52N 34°32' E 134°45'510.7
2018-Jun-11 18:26N 34°30' E 134°39'510.6
2018-Jun-11 18:00N 34°28' E 134°34'  

Dump ship's entire track history